Time;durP1;ratioP1;P1;durP2;ratioP2;P2;SDS_P1;SDS_P2;PMS_P1;PMS_P2;Temp;Humidity;BMP_temperature;BMP_pressure;BME280_temperature;BME280_humidity;BME280_pressure;Samples;Min_cycle;Max_cycle;Signal;HPM_P1;HPM_P2
2023/10/13 00:02:01;;;;;;;0.60;0.60;;;;;;;14.12;51.54;101565.28;4987820;28;20397;-77
2023/10/13 00:04:34;;;;;;;0.10;0.10;;;;;;;14.06;51.57;101576.66;4987759;28;20420;-78
2023/10/13 00:07:06;;;;;;;0.10;0.10;;;;;;;14.13;51.45;101564.31;4987882;28;20412;-78
2023/10/13 00:09:37;;;;;;;0.17;0.17;;;;;;;14.19;51.50;101562.78;4975017;28;20400;-77
2023/10/13 00:12:13;;;;;;;0.22;0.22;;;;;;;14.23;51.21;101563.25;5001504;28;20400;-80
2023/10/13 00:14:41;;;;;;;0.10;0.10;;;;;;;14.28;50.78;101552.91;4988661;28;20960;-79
2023/10/13 00:17:19;;;;;;;0.50;0.50;;;;;;;14.31;50.70;101547.22;4989667;28;20436;-79
2023/10/13 00:19:45;;;;;;;0.10;0.10;;;;;;;14.37;50.47;101557.19;4990027;28;20390;-79
2023/10/13 00:22:15;;;;;;;0.10;0.10;;;;;;;14.40;50.23;101550.66;4989379;28;20460;-78
2023/10/13 00:24:48;;;;;;;0.10;0.10;;;;;;;14.47;50.32;101562.31;4989636;28;20962;-76
2023/10/13 00:27:29;;;;;;;0.13;0.13;;;;;;;14.46;49.99;101558.00;4989343;28;20869;-78
2023/10/13 00:30:42;;;;;;;0.43;0.43;;;;;;;14.45;49.83;101554.47;4989509;28;20393;-78
2023/10/13 00:32:55;;;;;;;0.10;0.10;;;;;;;14.50;50.08;101554.78;4982938;28;20408;-79
2023/10/13 00:35:28;;;;;;;0.10;0.10;;;;;;;14.52;49.80;101559.94;5004008;28;20410;-78
2023/10/13 00:37:54;;;;;;;0.20;0.20;;;;;;;14.48;49.50;101554.13;4989764;28;20397;-79
2023/10/13 00:48:54;;;;;;;0.10;0.10;;;;;;;14.45;49.36;101546.47;4989169;28;20401;-78
2023/10/13 00:51:40;;;;;;;0.20;0.20;;;;;;;14.37;49.43;101533.19;4988815;28;20402;-77
2023/10/13 00:54:11;;;;;;;0.70;0.70;;;;;;;14.41;49.39;101539.00;4989724;28;20394;-79
2023/10/13 00:56:49;;;;;;;0.10;0.10;;;;;;;14.47;49.55;101541.78;4989382;28;20398;-78
2023/10/13 00:59:16;;;;;;;0.10;0.10;;;;;;;14.50;49.25;101549.44;4990015;28;20618;-77
2023/10/13 01:01:45;;;;;;;0.30;0.30;;;;;;;14.45;49.13;101543.81;4988747;28;20389;-78
2023/10/13 01:04:14;;;;;;;0.10;0.10;;;;;;;14.46;49.49;101550.00;4990286;28;20393;-77
2023/10/13 01:06:44;;;;;;;0.50;0.32;;;;;;;14.42;49.38;101541.50;4989375;28;20390;-78
2023/10/13 01:09:17;;;;;;;0.20;0.20;;;;;;;14.45;49.60;101557.13;4988524;28;20470;-78
2023/10/13 01:11:52;;;;;;;0.20;0.20;;;;;;;14.40;49.25;101543.50;5004667;28;20390;-78
2023/10/13 01:14:23;;;;;;;0.20;0.20;;;;;;;14.38;49.42;101544.69;4989843;28;20382;-77
2023/10/13 01:16:52;;;;;;;0.10;0.10;;;;;;;14.36;49.36;101539.53;4989772;28;20389;-78
2023/10/13 01:19:21;;;;;;;0.10;0.10;;;;;;;14.35;49.16;101543.22;4972786;28;20386;-78
2023/10/13 01:22:02;;;;;;;0.20;0.20;;;;;;;14.36;49.38;101546.69;4988529;28;20508;-78
2023/10/13 01:24:34;;;;;;;0.10;0.10;;;;;;;14.24;49.44;101544.44;4987674;28;20970;-78
2023/10/13 01:27:19;;;;;;;0.10;0.10;;;;;;;14.25;49.58;101545.25;4987899;28;20405;-78
2023/10/13 01:29:50;;;;;;;0.10;0.10;;;;;;;14.23;49.62;101552.59;4989537;28;20393;-78
2023/10/13 01:32:20;;;;;;;0.25;0.25;;;;;;;14.17;49.62;101554.13;4989598;28;20382;-78
2023/10/13 01:34:47;;;;;;;0.40;0.40;;;;;;;14.14;49.87;101560.63;4990439;28;20397;-80
2023/10/13 01:37:12;;;;;;;0.50;0.20;;;;;;;14.18;49.53;101558.44;4992454;28;20501;-81
2023/10/13 01:39:41;;;;;;;0.82;0.43;;;;;;;14.14;49.62;101557.94;4992411;28;20405;-79
2023/10/13 01:42:14;;;;;;;0.17;0.13;;;;;;;14.17;49.83;101566.59;4991314;28;20754;-76
2023/10/13 01:44:41;;;;;;;0.22;0.20;;;;;;;14.15;49.69;101558.78;4991116;28;20513;-79
2023/10/13 01:47:07;;;;;;;0.43;0.30;;;;;;;14.14;49.58;101565.13;4992148;28;20402;-77
2023/10/13 01:49:41;;;;;;;0.88;0.57;;;;;;;14.05;49.65;101559.00;4996036;28;20770;-79
2023/10/13 01:52:08;;;;;;;0.17;0.17;;;;;;;13.99;50.03;101564.16;5026924;28;21026;-77
2023/10/13 01:54:33;;;;;;;0.20;0.20;;;;;;;14.00;50.09;101561.34;5010779;28;20395;-78
2023/10/13 01:57:03;;;;;;;0.17;0.17;;;;;;;14.03;50.17;101561.00;5026880;28;20778;-79
2023/10/13 01:59:30;;;;;;;0.15;0.15;;;;;;;14.07;49.84;101554.31;5012002;28;20871;-78
2023/10/13 02:01:57;;;;;;;0.60;0.30;;;;;;;14.07;49.70;101556.16;5010537;28;20478;-79
2023/10/13 02:04:24;;;;;;;0.20;0.20;;;;;;;14.06;49.72;101550.00;5011777;28;20437;-77
2023/10/13 02:06:52;;;;;;;0.30;0.30;;;;;;;14.02;49.87;101543.31;5011394;28;20477;-78
2023/10/13 02:09:25;;;;;;;0.50;0.50;;;;;;;14.01;49.88;101544.34;5011509;28;20934;-79
2023/10/13 02:11:54;;;;;;;0.30;0.30;;;;;;;14.02;49.52;101542.50;5011505;28;20387;-78
2023/10/13 02:14:22;;;;;;;0.20;0.20;;;;;;;14.01;49.65;101540.81;4994706;28;20863;-78
2023/10/13 02:16:53;;;;;;;0.50;0.50;;;;;;;13.94;49.66;101532.72;5010619;28;20384;-78
2023/10/13 02:19:22;;;;;;;0.17;0.17;;;;;;;13.93;49.67;101529.19;5011216;28;20491;-77
2023/10/13 02:21:58;;;;;;;0.10;0.10;;;;;;;13.94;49.70;101528.19;4994124;28;20380;-76
2023/10/13 02:24:29;;;;;;;0.00;0.00;;;;;;;13.98;49.75;101518.03;5011496;28;20408;-78
2023/10/13 02:27:02;;;;;;;0.25;0.25;;;;;;;14.02;49.77;101519.34;5026569;28;20388;-77
2023/10/13 02:29:39;;;;;;;0.10;0.10;;;;;;;13.99;49.77;101513.50;5026540;28;20779;-77
2023/10/13 02:32:12;;;;;;;0.13;0.13;;;;;;;14.02;49.84;101521.19;5026876;28;20415;-78
2023/10/13 02:34:43;;;;;;;0.10;0.10;;;;;;;14.02;49.58;101527.34;5011794;28;20388;-77
2023/10/13 02:37:10;;;;;;;0.10;0.10;;;;;;;14.04;49.84;101532.50;5011046;28;20404;-78
2023/10/13 02:39:41;;;;;;;0.20;0.20;;;;;;;13.98;49.61;101528.69;5010201;28;20385;-77
2023/10/13 02:42:22;;;;;;;0.20;0.20;;;;;;;13.95;49.68;101537.88;5026030;28;20772;-76
2023/10/13 02:44:55;;;;;;;0.20;0.20;;;;;;;13.88;49.98;101542.22;5010584;28;20925;-76
2023/10/13 02:47:27;;;;;;;0.03;0.03;;;;;;;13.88;49.87;101544.03;5010539;28;20410;-76
2023/10/13 02:49:52;;;;;;;3.55;0.73;;;;;;;13.79;49.90;101545.06;5015360;28;20442;-78
2023/10/13 02:52:20;;;;;;;0.35;0.35;;;;;;;13.58;51.49;101557.94;5008345;28;20458;-77
2023/10/13 02:54:51;;;;;;;0.28;0.28;;;;;;;13.35;52.31;101552.47;5024376;28;20989;-76
2023/10/13 02:57:17;;;;;;;0.20;0.20;;;;;;;13.22;52.63;101556.59;5009256;28;20388;-76
2023/10/13 02:59:48;;;;;;;0.35;0.35;;;;;;;13.18;52.71;101550.75;5009605;28;20450;-76
2023/10/13 03:02:17;;;;;;;0.30;0.30;;;;;;;13.29;52.25;101544.28;5025445;28;20980;-77
2023/10/13 03:04:47;;;;;;;0.90;0.90;;;;;;;13.33;52.25;101550.97;5025563;28;20435;-76
2023/10/13 03:07:23;;;;;;;0.10;0.10;;;;;;;13.18;52.63;101548.97;5025535;28;20412;-76
2023/10/13 03:09:52;;;;;;;0.30;0.30;;;;;;;13.13;52.89;101556.59;5009420;28;20396;-78
2023/10/13 03:12:21;;;;;;;0.60;0.40;;;;;;;12.97;53.51;101568.06;4994048;28;20480;-76
2023/10/13 03:14:51;;;;;;;0.20;0.20;;;;;;;12.95;53.41;101566.59;5025955;28;20376;-77
2023/10/13 03:17:32;;;;;;;0.20;0.20;;;;;;;13.03;53.23;101561.25;5010737;28;20929;-77
2023/10/13 03:19:59;;;;;;;0.50;0.50;;;;;;;13.14;53.01;101563.59;5011185;28;20475;-79
2023/10/13 03:22:31;;;;;;;0.10;0.10;;;;;;;13.17;52.85;101565.09;5011432;28;20467;-79
2023/10/13 03:25:05;;;;;;;0.30;0.30;;;;;;;13.19;53.05;101565.75;5010471;28;20605;-79
2023/10/13 03:27:48;;;;;;;0.10;0.10;;;;;;;13.18;53.08;101566.75;5010629;28;20388;-78
2023/10/13 03:30:15;;;;;;;0.10;0.10;;;;;;;13.11;53.26;101563.94;5010046;28;20384;-78
2023/10/13 03:32:47;;;;;;;0.70;0.70;;;;;;;13.05;53.53;101571.75;5009006;28;20763;-78
2023/10/13 03:35:16;;;;;;;0.37;0.37;;;;;;;13.03;53.76;101568.41;5025633;28;20414;-78
2023/10/13 03:37:42;;;;;;;0.30;0.30;;;;;;;12.81;54.59;101573.38;5025694;28;20404;-79
2023/10/13 03:43:06;;;;;;;0.10;0.10;;;;;;;12.88;54.63;101562.91;5010304;28;20399;-78
2023/10/13 03:45:43;;;;;;;0.08;0.08;;;;;;;13.01;53.99;101557.94;5008459;28;20537;-78
2023/10/13 03:51:10;;;;;;;0.57;0.57;;;;;;;12.94;54.26;101565.72;5009204;28;20408;-79
2023/10/13 03:53:52;;;;;;;0.10;0.10;;;;;;;12.93;53.75;101564.09;5007809;28;20495;-79
2023/10/13 03:59:35;;;;;;;0.28;0.17;;;;;;;12.93;53.94;101556.09;5009376;28;20439;-77
2023/10/13 04:02:02;;;;;;;0.70;0.70;;;;;;;13.11;53.33;101555.13;5006817;28;20506;-77
2023/10/13 04:04:34;;;;;;;0.10;0.10;;;;;;;13.20;53.04;101546.97;5002267;28;20412;-78
2023/10/13 04:07:14;;;;;;;0.10;0.10;;;;;;;13.25;52.89;101548.28;5008457;28;20424;-77
2023/10/13 04:14:19;;;;;;;0.20;0.20;;;;;;;13.34;52.43;101547.31;5007737;28;21011;-76
2023/10/13 04:17:40;;;;;;;0.10;0.10;;;;;;;13.34;52.68;101532.19;5009915;28;20839;-77
2023/10/13 04:33:35;;;;;;;0.10;0.10;;;;;;;13.36;52.56;101548.81;5009819;28;20465;-78
2023/10/13 04:39:00;;;;;;;4.70;0.30;;;;;;;13.41;52.32;101548.28;5008363;28;20469;-78
2023/10/13 04:47:21;;;;;;;0.20;0.20;;;;;;;13.29;52.86;101562.91;4987205;28;20398;-78
2023/10/13 04:50:27;;;;;;;0.15;0.15;;;;;;;13.32;53.07;101560.78;5006894;28;20558;-82
2023/10/13 04:53:02;;;;;;;0.40;0.40;;;;;;;13.36;52.87;101554.13;5007704;28;20399;-84
2023/10/13 04:55:48;;;;;;;0.80;0.80;;;;;;;13.40;53.10;101567.97;5025367;28;20490;-83
2023/10/13 05:49:52;;;;;;;0.20;0.20;;;;;;;14.18;54.02;101610.94;4990586;28;20393;-83
2023/10/13 06:28:40;;;;;;;0.30;0.30;;;;;;;14.27;54.28;101621.41;4991729;28;20425;-82
2023/10/13 06:28:47;;;;;;;1.60;0.60;;;;;;;15.40;54.97;101654.03;4978237;28;20397;-83
2023/10/13 06:31:37;;;;;;;0.60;0.60;;;;;;;15.56;54.61;101656.56;5003545;28;20407;-83
2023/10/13 06:34:06;;;;;;;0.30;0.30;;;;;;;15.59;54.48;101666.06;5014466;28;20471;-82
2023/10/13 06:36:33;;;;;;;1.80;0.70;;;;;;;15.64;54.62;101663.66;5018347;28;21074;-90
2023/10/13 06:40:05;;;;;;;0.10;0.10;;;;;;;15.78;54.28;101660.25;5017757;28;20450;-85
2023/10/13 06:41:59;;;;;;;0.30;0.30;;;;;;;15.91;54.16;101678.34;5007451;28;20464;-88
2023/10/13 06:45:00;;;;;;;0.20;0.20;;;;;;;15.93;54.13;101676.31;5020667;28;20431;-90
2023/10/13 06:47:53;;;;;;;0.10;0.10;;;;;;;15.97;54.16;101666.94;5016518;28;20400;-83
2023/10/13 06:50:41;;;;;;;0.20;0.20;;;;;;;16.10;53.94;101657.41;5012745;28;20415;-85
2023/10/13 06:53:07;;;;;;;0.10;0.10;;;;;;;16.18;53.62;101654.66;5013818;28;20887;-83
2023/10/13 06:55:39;;;;;;;0.40;0.40;;;;;;;16.27;53.45;101661.59;5013356;28;20388;-84
2023/10/13 06:58:17;;;;;;;0.15;0.15;;;;;;;16.38;53.40;101650.41;5012426;28;20549;-87
2023/10/13 07:01:01;;;;;;;0.50;0.50;;;;;;;16.53;53.31;101654.91;5027684;28;20420;-80
2023/10/13 07:03:32;;;;;;;0.20;0.20;;;;;;;16.55;53.25;101648.38;5013066;28;20521;-84
2023/10/13 07:06:22;;;;;;;0.40;0.40;;;;;;;16.65;53.13;101669.50;5000541;28;20514;-80
2023/10/13 07:09:15;;;;;;;0.17;0.17;;;;;;;16.66;52.87;101667.66;5011538;28;20747;-82
2023/10/13 07:11:52;;;;;;;0.73;0.57;;;;;;;16.81;52.95;101666.59;5010019;28;20494;-82
2023/10/13 07:14:19;;;;;;;0.15;0.15;;;;;;;16.92;52.39;101653.78;5009475;28;20442;-86
2023/10/13 07:17:07;;;;;;;0.45;0.45;;;;;;;17.10;52.35;101662.22;5010369;28;20404;-82
2023/10/13 07:19:54;;;;;;;0.70;0.60;;;;;;;17.16;52.03;101671.34;4991842;28;20402;-82
2023/10/13 07:22:39;;;;;;;0.20;0.17;;;;;;;17.14;52.11;101670.69;5001446;28;20408;-82
2023/10/13 07:25:23;;;;;;;0.20;0.20;;;;;;;17.33;51.85;101672.75;5012824;28;20427;-82
2023/10/13 07:27:50;;;;;;;0.10;0.10;;;;;;;17.36;51.59;101667.03;5009268;28;20479;-83
2023/10/13 07:30:19;;;;;;;0.50;0.30;;;;;;;17.43;51.50;101666.25;4992752;28;20395;-82
2023/10/13 07:33:01;;;;;;;0.20;0.20;;;;;;;17.57;51.17;101671.56;5011347;28;20416;-83
2023/10/13 07:35:30;;;;;;;0.30;0.30;;;;;;;17.65;51.10;101673.25;4994338;28;20969;-82
2023/10/13 07:37:59;;;;;;;0.23;0.23;;;;;;;17.78;50.97;101659.13;5011198;28;20388;-82
2023/10/13 07:43:00;;;;;;;0.10;0.10;;;;;;;17.95;50.67;101660.53;5011988;28;20443;-76
2023/10/13 07:45:50;;;;;;;0.60;0.30;;;;;;;18.02;50.23;101647.16;5009317;28;20782;-79
2023/10/13 07:48:29;;;;;;;0.05;0.05;;;;;;;18.21;49.79;101647.50;5008461;28;20620;-77
2023/10/13 07:51:05;;;;;;;0.43;0.43;;;;;;;18.29;49.97;101648.16;5024927;28;20483;-77
2023/10/13 07:53:34;;;;;;;0.20;0.20;;;;;;;18.40;49.46;101653.97;5009630;28;20412;-81
2023/10/13 07:56:05;;;;;;;1.30;1.20;;;;;;;18.49;49.49;101652.78;5009701;28;20479;-78
2023/10/13 07:59:00;;;;;;;0.30;0.30;;;;;;;18.55;49.55;101657.38;5009374;28;20427;-78
2023/10/13 08:01:32;;;;;;;0.10;0.10;;;;;;;18.63;49.26;101643.75;5010434;28;20396;-78
2023/10/13 08:04:28;;;;;;;0.10;0.10;;;;;;;18.78;49.02;101649.00;5010249;28;20914;-81
2023/10/13 08:07:12;;;;;;;0.75;0.45;;;;;;;18.82;49.05;101655.63;4997339;28;20396;-80
2023/10/13 08:09:51;;;;;;;0.45;0.45;;;;;;;18.89;48.53;101651.13;5009940;28;20450;-77
2023/10/13 08:12:21;;;;;;;0.22;0.22;;;;;;;19.05;48.25;101646.38;5008003;28;20395;-78
2023/10/13 08:15:21;;;;;;;0.47;0.45;;;;;;;19.21;48.07;101659.47;4960354;28;20392;-78
2023/10/13 08:17:51;;;;;;;0.30;0.30;;;;;;;19.29;47.89;101651.19;5008143;28;20486;-77
2023/10/13 08:20:43;;;;;;;0.80;0.60;;;;;;;19.45;47.88;101654.53;4990405;28;20495;-77
2023/10/13 08:23:20;;;;;;;0.10;0.10;;;;;;;19.61;47.49;101643.34;4991866;28;20474;-76
2023/10/13 08:28:53;;;;;;;0.17;0.17;;;;;;;19.73;47.24;101642.72;5008485;28;20411;-77
2023/10/13 08:31:26;;;;;;;3.30;1.00;;;;;;;19.71;47.39;101640.22;5007920;28;20392;-79
2023/10/13 08:34:05;;;;;;;0.32;0.25;;;;;;;19.88;46.70;101643.38;4991406;28;20384;-79
2023/10/13 08:36:38;;;;;;;0.10;0.10;;;;;;;20.07;46.63;101641.66;4991511;28;20400;-78
2023/10/13 08:42:23;;;;;;;0.10;0.10;;;;;;;20.50;45.62;101646.50;4987841;28;20830;-78
2023/10/13 08:44:52;;;;;;;0.40;0.40;;;;;;;20.53;45.69;101653.34;5013345;28;20412;-79
2023/10/13 08:47:20;;;;;;;0.30;0.30;;;;;;;20.59;44.91;101644.41;5029293;28;20396;-78
2023/10/13 08:49:56;;;;;;;0.10;0.10;;;;;;;20.74;44.87;101645.00;5013850;28;20483;-77
2023/10/13 08:55:49;;;;;;;0.30;0.30;;;;;;;20.86;44.21;101653.22;4969231;28;20428;-79
2023/10/13 08:58:20;;;;;;;0.10;0.10;;;;;;;21.05;44.03;101646.06;4980824;28;20404;-78
2023/10/13 09:00:56;;;;;;;1.08;1.08;;;;;;;21.11;43.80;101633.59;5013565;28;20506;-78
2023/10/13 09:03:43;;;;;;;0.20;0.20;;;;;;;21.16;43.26;101631.88;5013745;28;20504;-78
2023/10/13 09:06:19;;;;;;;0.75;0.75;;;;;;;21.35;43.35;101640.03;5012340;28;20415;-79
2023/10/13 09:09:07;;;;;;;0.10;0.10;;;;;;;21.53;43.20;101640.13;5013792;28;20383;-80
2023/10/13 09:11:53;;;;;;;0.10;0.10;;;;;;;21.46;43.44;101625.03;5011537;28;20396;-80
2023/10/13 09:14:33;;;;;;;0.17;0.17;;;;;;;21.39;43.49;101623.22;5013601;28;20501;-79
2023/10/13 09:17:11;;;;;;;0.30;0.30;;;;;;;21.39;43.84;101619.66;5013496;28;20388;-78
2023/10/13 09:19:55;;;;;;;0.13;0.13;;;;;;;21.54;43.80;101622.09;4996869;28;20391;-79
2023/10/13 09:22:35;;;;;;;0.20;0.20;;;;;;;21.52;43.75;101616.91;5012902;28;20795;-78
2023/10/13 09:25:13;;;;;;;0.30;0.30;;;;;;;21.69;43.32;101616.34;5012071;28;20427;-79
2023/10/13 09:27:40;;;;;;;0.30;0.30;;;;;;;21.72;43.50;101618.59;4989159;28;20409;-79
2023/10/13 09:30:24;;;;;;;0.70;0.70;;;;;;;21.76;42.81;101614.41;4974617;28;20417;-78
2023/10/13 09:33:08;;;;;;;0.80;0.80;;;;;;;21.83;42.96;101622.44;4991130;28;20398;-80
2023/10/13 09:35:39;;;;;;;0.30;0.30;;;;;;;21.94;42.97;101627.09;4955810;28;20391;-78
2023/10/13 09:38:05;;;;;;;0.35;0.35;;;;;;;22.20;42.41;101630.56;4971613;28;20442;-79
2023/10/13 09:40:46;;;;;;;0.20;0.20;;;;;;;22.27;42.20;101618.69;4971663;28;20427;-77
2023/10/13 09:43:17;;;;;;;0.20;0.20;;;;;;;22.26;42.52;101617.00;4971560;28;20419;-78
2023/10/13 09:48:41;;;;;;;0.25;0.25;;;;;;;22.40;42.15;101622.25;4944569;28;20953;-77
2023/10/13 09:51:13;;;;;;;0.25;0.25;;;;;;;22.28;42.73;101617.59;4939703;28;20669;-79
2023/10/13 09:53:41;;;;;;;0.50;0.50;;;;;;;22.44;42.43;101618.88;4952035;28;20758;-79
2023/10/13 09:56:51;;;;;;;0.50;0.50;;;;;;;22.59;42.56;101610.34;4952074;28;20518;-80
2023/10/13 09:59:25;;;;;;;0.20;0.20;;;;;;;22.75;42.09;101622.41;4951795;29;20484;-78
2023/10/13 10:01:57;;;;;;;0.20;0.20;;;;;;;22.78;42.06;101610.31;4919757;29;20797;-79
2023/10/13 10:04:51;;;;;;;0.50;0.50;;;;;;;22.83;42.01;101607.75;4951526;28;20409;-79
2023/10/13 10:07:32;;;;;;;0.35;0.35;;;;;;;22.77;42.10;101598.69;4932011;29;20403;-78
2023/10/13 10:10:03;;;;;;;0.60;0.50;;;;;;;22.75;42.59;101592.69;4934172;29;20434;-77
2023/10/13 10:13:07;;;;;;;0.63;0.63;;;;;;;22.94;41.95;101598.03;4934532;29;20454;-79
2023/10/13 10:15:44;;;;;;;1.50;0.85;;;;;;;22.94;42.12;101590.75;4934493;29;20399;-79
2023/10/13 10:18:30;;;;;;;0.20;0.20;;;;;;;23.02;42.08;101589.59;4959489;28;20395;-79
2023/10/13 10:21:15;;;;;;;0.20;0.20;;;;;;;23.13;42.08;101593.41;4955640;28;20407;-79
2023/10/13 10:23:58;;;;;;;0.30;0.30;;;;;;;23.20;41.79;101581.41;4976123;28;20395;-81
2023/10/13 10:26:32;;;;;;;0.40;0.40;;;;;;;23.52;41.12;101577.56;5011699;28;21193;-79
2023/10/13 10:29:00;;;;;;;0.45;0.45;;;;;;;23.60;40.63;101560.97;5012542;28;20403;-79
2023/10/13 10:31:56;;;;;;;0.20;0.20;;;;;;;23.76;40.47;101565.66;5013305;28;21001;-82
2023/10/13 10:34:35;;;;;;;0.13;0.13;;;;;;;23.70;40.35;101563.91;5013528;28;20962;-80
2023/10/13 10:37:09;;;;;;;0.20;0.20;;;;;;;23.97;39.56;101561.53;5012204;28;20470;-78
2023/10/13 10:39:45;;;;;;;0.50;0.47;;;;;;;24.15;39.60;101573.28;4997446;28;20403;-79
2023/10/13 10:42:29;;;;;;;0.55;0.40;;;;;;;24.20;39.02;101566.06;5013219;28;20396;-77
2023/10/13 10:44:57;;;;;;;0.63;0.30;;;;;;;24.20;39.36;101567.94;4999650;28;20942;-78
2023/10/13 10:47:36;;;;;;;0.30;0.20;;;;;;;24.23;39.40;101562.03;5027155;28;21014;-81
2023/10/13 10:50:26;;;;;;;0.20;0.20;;;;;;;24.21;39.30;101556.06;5012850;28;20457;-78
2023/10/13 10:53:00;;;;;;;0.30;0.30;;;;;;;24.42;39.19;101555.38;5012751;28;20400;-80
2023/10/13 10:55:29;;;;;;;0.30;0.30;;;;;;;24.55;38.90;101551.59;5013186;28;20396;-78
2023/10/13 10:58:02;;;;;;;0.30;0.30;;;;;;;24.35;39.95;101552.00;5012517;28;20404;-78
2023/10/13 11:00:41;;;;;;;0.30;0.30;;;;;;;24.46;39.63;101547.59;4980404;28;20792;-78
2023/10/13 11:03:11;;;;;;;0.10;0.10;;;;;;;24.46;40.06;101549.47;5013617;28;20476;-78
2023/10/13 11:05:59;;;;;;;0.20;0.20;;;;;;;24.35;40.59;101540.34;4979047;28;20926;-79
2023/10/13 11:08:31;;;;;;;0.20;0.20;;;;;;;24.47;40.58;101551.13;5012459;28;20384;-77
2023/10/13 11:11:05;;;;;;;0.70;0.40;;;;;;;24.74;40.19;101535.94;5013193;28;20399;-80
2023/10/13 11:13:54;;;;;;;0.25;0.25;;;;;;;24.88;39.32;101520.16;5011992;28;20914;-79
2023/10/13 11:16:27;;;;;;;0.50;0.30;;;;;;;25.18;36.52;101522.53;5006798;28;20392;-78
2023/10/13 11:19:12;;;;;;;0.90;0.80;;;;;;;25.59;35.67;101510.63;5013086;28;20403;-78
2023/10/13 11:21:43;;;;;;;0.28;0.25;;;;;;;25.85;34.08;101528.09;5011710;28;20838;-79
2023/10/13 11:24:17;;;;;;;1.00;0.32;;;;;;;26.00;33.30;101512.00;5013486;28;20391;-79
2023/10/13 11:26:50;;;;;;;0.45;0.30;;;;;;;26.28;33.36;101513.66;5012337;28;20412;-79
2023/10/13 11:29:20;;;;;;;1.00;0.40;;;;;;;26.35;33.21;101505.31;5011886;28;20923;-80
2023/10/13 11:31:57;;;;;;;2.08;1.15;;;;;;;26.48;33.51;101507.59;5011798;28;20403;-78
2023/10/13 11:34:23;;;;;;;1.33;0.80;;;;;;;26.62;33.44;101501.78;5011859;28;20379;-79
2023/10/13 11:36:52;;;;;;;0.90;0.70;;;;;;;26.63;31.57;101506.13;5026673;28;20484;-80
2023/10/13 11:39:25;;;;;;;0.50;0.38;;;;;;;26.54;31.38;101502.22;5011481;28;20466;-81
2023/10/13 11:41:55;;;;;;;0.60;0.60;;;;;;;26.55;31.38;101488.38;4994483;28;20399;-78
2023/10/13 11:46:56;;;;;;;0.80;0.60;;;;;;;26.75;31.60;101493.19;5010134;28;20415;-77
2023/10/13 11:52:02;;;;;;;1.30;0.70;;;;;;;26.86;31.41;101485.94;5010045;28;20956;-79
2023/10/13 11:54:27;;;;;;;0.75;0.35;;;;;;;27.00;31.69;101489.84;5011805;28;20493;-77
2023/10/13 11:56:58;;;;;;;0.93;0.70;;;;;;;27.06;31.92;101487.97;5029112;28;20860;-79
2023/10/13 11:59:53;;;;;;;0.40;0.30;;;;;;;27.10;32.11;101489.09;5010887;28;20980;-78
2023/10/13 12:04:54;;;;;;;0.63;0.50;;;;;;;27.19;31.03;101483.97;5010432;28;20515;-78
2023/10/13 12:07:23;;;;;;;1.10;0.50;;;;;;;27.28;31.12;101479.72;5010537;28;20957;-79
2023/10/13 12:12:28;;;;;;;0.50;0.30;;;;;;;27.40;30.48;101474.84;4995217;28;20454;-77
2023/10/13 12:14:55;;;;;;;0.70;0.45;;;;;;;27.46;30.64;101470.28;5012684;28;20399;-78
2023/10/13 12:17:31;;;;;;;0.70;0.30;;;;;;;27.49;29.85;101474.38;5012537;28;20429;-77
2023/10/13 12:20:00;;;;;;;1.23;0.60;;;;;;;27.47;29.94;101474.63;5029579;28;20390;-79
2023/10/13 12:22:35;;;;;;;0.50;0.30;;;;;;;27.46;29.86;101475.72;5029257;28;20441;-80
2023/10/13 12:25:18;;;;;;;0.60;0.45;;;;;;;27.46;30.54;101475.72;5028979;28;20480;-79
2023/10/13 12:27:48;;;;;;;0.50;0.30;;;;;;;27.49;29.54;101474.38;5014430;28;20409;-77
2023/10/13 12:30:22;;;;;;;1.05;0.55;;;;;;;27.55;29.10;101479.56;5028768;28;20531;-79
2023/10/13 12:32:58;;;;;;;0.70;0.30;;;;;;;27.62;28.28;101471.97;5029157;28;20450;-79
2023/10/13 12:35:35;;;;;;;0.80;0.50;;;;;;;27.72;28.03;101476.63;4979852;28;20421;-80
2023/10/13 12:38:08;;;;;;;0.80;0.40;;;;;;;27.64;26.80;101477.13;5013722;28;20420;-78
2023/10/13 12:48:58;;;;;;;0.57;0.45;;;;;;;27.85;26.37;101465.22;5009927;28;20403;-78
2023/10/13 12:54:35;;;;;;;0.65;0.50;;;;;;;27.85;26.87;101465.22;5011021;28;20424;-77
2023/10/13 12:56:56;;;;;;;1.27;0.40;;;;;;;27.86;26.85;101460.63;5011468;28;20458;-77
2023/10/13 12:59:26;;;;;;;0.80;0.40;;;;;;;27.86;26.88;101457.91;5025930;28;20854;-78
2023/10/13 13:01:53;;;;;;;1.15;0.50;;;;;;;27.63;26.91;101468.16;5009189;28;20416;-78
2023/10/13 13:04:20;;;;;;;0.52;0.38;;;;;;;27.76;27.02;101463.31;5010952;28;20380;-79
2023/10/13 13:06:50;;;;;;;0.50;0.30;;;;;;;27.84;27.19;101466.34;5026087;28;20411;-78
2023/10/13 13:09:25;;;;;;;0.85;0.38;;;;;;;27.86;27.12;101468.78;5025856;28;20403;-79
2023/10/13 13:11:57;;;;;;;0.73;0.52;;;;;;;28.00;27.37;101467.22;5008626;28;20918;-78
2023/10/13 13:14:28;;;;;;;1.00;0.50;;;;;;;28.01;27.60;101468.03;4978002;28;20766;-78
2023/10/13 13:17:04;;;;;;;1.17;0.55;;;;;;;27.97;27.41;101456.03;5010692;28;20487;-79
2023/10/13 13:19:38;;;;;;;1.65;0.70;;;;;;;28.08;27.50;101463.16;5009083;28;20896;-78
2023/10/13 13:22:11;;;;;;;1.38;0.50;;;;;;;28.07;27.41;101455.25;5025202;28;20399;-79
2023/10/13 13:24:45;;;;;;;1.60;0.77;;;;;;;28.16;27.20;101450.88;5010286;28;20475;-80
2023/10/13 13:27:13;;;;;;;2.03;0.88;;;;;;;28.13;27.51;101456.91;5008957;28;20412;-78
2023/10/13 13:29:44;;;;;;;2.20;0.77;;;;;;;27.99;27.36;101453.88;5026748;28;20727;-79
2023/10/13 13:32:17;;;;;;;1.10;0.40;;;;;;;28.08;27.55;101460.41;5010769;28;20400;-78
2023/10/13 13:37:32;;;;;;;1.40;0.60;;;;;;;27.94;27.65;101448.41;5010809;28;20390;-79
2023/10/13 13:40:13;;;;;;;1.97;0.60;;;;;;;28.00;27.68;101445.44;4993715;28;20487;-78
2023/10/13 13:42:43;;;;;;;1.63;0.70;;;;;;;28.09;27.95;101445.72;5010520;28;20395;-79
2023/10/13 13:45:27;;;;;;;1.30;0.50;;;;;;;28.13;27.31;101446.00;4994227;28;20416;-78
2023/10/13 13:47:53;;;;;;;0.93;0.50;;;;;;;28.12;27.40;101447.88;4979399;28;20556;-77
2023/10/13 13:50:38;;;;;;;2.42;1.45;;;;;;;28.16;27.88;101448.16;4978060;28;20396;-77
2023/10/13 13:53:09;;;;;;;1.65;0.57;;;;;;;28.26;27.49;101453.63;4996233;28;20400;-79
2023/10/13 13:55:35;;;;;;;1.75;0.50;;;;;;;28.23;27.53;101446.00;4994200;28;20407;-78
2023/10/13 13:58:07;;;;;;;1.83;0.70;;;;;;;28.20;27.54;101452.00;5010164;28;20407;-78
2023/10/13 14:00:48;;;;;;;2.67;0.85;;;;;;;28.21;27.53;101448.97;5027543;28;20914;-78
2023/10/13 14:05:59;;;;;;;2.05;1.00;;;;;;;28.34;27.67;101449.53;5010537;28;20422;-78
2023/10/13 14:08:27;;;;;;;2.60;0.88;;;;;;;28.31;27.88;101442.75;5012234;28;20423;-79
2023/10/13 14:11:22;;;;;;;2.20;0.90;;;;;;;28.11;27.95;101439.97;5014948;28;20408;-77
2023/10/13 14:13:49;;;;;;;2.47;0.75;;;;;;;28.06;27.78;101440.81;5012208;28;20400;-76
2023/10/13 14:16:26;;;;;;;1.77;0.80;;;;;;;28.18;27.87;101435.06;5011575;28;20392;-78
2023/10/13 14:18:53;;;;;;;1.47;0.83;;;;;;;28.24;27.62;101438.66;5012626;28;20475;-79
2023/10/13 14:21:24;;;;;;;2.70;0.82;;;;;;;28.15;28.10;101435.63;4978055;28;20396;-77
2023/10/13 14:23:54;;;;;;;3.00;0.80;;;;;;;28.02;28.48;101439.72;5027535;28;20785;-79
2023/10/13 14:26:21;;;;;;;1.73;0.80;;;;;;;28.04;28.77;101429.34;4997035;28;20414;-79
2023/10/13 14:29:01;;;;;;;2.57;1.00;;;;;;;27.90;29.32;101444.56;5011562;28;20388;-81
2023/10/13 14:31:31;;;;;;;1.17;0.63;;;;;;;27.84;29.54;101438.28;5014950;28;20419;-79
2023/10/13 14:34:00;;;;;;;1.80;0.60;;;;;;;27.79;29.96;101440.97;5032106;28;20424;-80
2023/10/13 14:36:28;;;;;;;1.08;0.40;;;;;;;27.85;29.82;101437.97;5011276;28;20969;-80
2023/10/13 14:38:59;;;;;;;0.88;0.47;;;;;;;27.93;29.84;101447.59;5012893;28;20380;-80
2023/10/13 14:41:26;;;;;;;0.88;0.47;;;;;;;27.90;29.81;101437.22;5009771;28;20400;-78
2023/10/13 14:43:52;;;;;;;1.47;0.60;;;;;;;27.87;29.61;101442.34;5009131;28;20491;-78
2023/10/13 14:46:24;;;;;;;1.05;0.60;;;;;;;27.90;29.88;101445.38;5009692;28;20808;-78
2023/10/13 14:48:56;;;;;;;1.05;0.45;;;;;;;27.91;29.67;101443.47;5026853;28;20561;-78
2023/10/13 14:51:22;;;;;;;1.02;0.85;;;;;;;27.86;30.05;101438.81;5010431;28;20395;-78